createdAt,value
2022-08-04T00:00:18.736Z,4.30
2022-08-04T00:02:54.685Z,4.43
2022-08-04T00:05:24.596Z,4.57
2022-08-04T00:08:31.934Z,4.50
2022-08-04T00:11:00.157Z,6.37
2022-08-04T00:13:30.655Z,5.60
2022-08-04T00:16:06.081Z,4.73
2022-08-04T00:18:48.852Z,3.73
2022-08-04T00:21:19.001Z,4.20
2022-08-04T00:24:12.320Z,4.83
2022-08-04T00:26:36.340Z,4.60
2022-08-04T00:29:05.607Z,4.70
2022-08-04T00:31:55.090Z,5.20
2022-08-04T00:34:24.131Z,4.10
2022-08-04T00:36:54.489Z,4.70
2022-08-04T00:39:22.101Z,4.30
2022-08-04T00:41:57.890Z,3.87
2022-08-04T00:44:35.922Z,4.30
2022-08-04T00:47:30.328Z,4.80
2022-08-04T00:50:24.969Z,4.60
2022-08-04T00:52:56.507Z,3.83
2022-08-04T00:56:12.838Z,3.80
2022-08-04T00:59:25.040Z,4.57
2022-08-04T01:02:16.362Z,4.13
2022-08-04T01:04:55.777Z,4.30
2022-08-04T01:07:38.204Z,4.30
2022-08-04T01:10:15.503Z,3.90
2022-08-04T01:12:47.225Z,4.50
2022-08-04T01:15:57.166Z,4.37
2022-08-04T01:19:00.240Z,4.47
2022-08-04T01:21:32.044Z,3.87
2022-08-04T01:24:51.175Z,3.83
2022-08-04T01:27:47.675Z,4.17
2022-08-04T01:30:17.205Z,4.30
2022-08-04T01:33:13.369Z,3.53
2022-08-04T01:35:47.331Z,3.70
2022-08-04T01:38:33.803Z,3.93
2022-08-04T01:41:08.715Z,3.70
2022-08-04T01:43:43.904Z,3.70
2022-08-04T01:46:14.264Z,3.57
2022-08-04T01:48:45.151Z,3.93
2022-08-04T01:51:12.051Z,4.07
2022-08-04T01:53:43.592Z,4.20
2022-08-04T01:56:12.208Z,4.10
2022-08-04T01:58:40.579Z,3.83
2022-08-04T02:01:12.856Z,4.60
2022-08-04T02:04:19.516Z,3.50
2022-08-04T02:06:52.227Z,3.60
2022-08-04T02:09:27.720Z,4.80
2022-08-04T02:12:15.764Z,3.63
2022-08-04T02:14:58.609Z,3.70
2022-08-04T02:18:03.651Z,4.30
2022-08-04T02:20:44.616Z,4.30
2022-08-04T02:23:16.142Z,4.37
2022-08-04T02:26:03.614Z,3.70
2022-08-04T02:28:40.563Z,3.63
2022-08-04T02:31:29.300Z,3.63
2022-08-04T02:34:17.747Z,3.87
2022-08-04T02:36:45.801Z,3.93
2022-08-04T02:39:19.963Z,3.10
2022-08-04T02:41:49.204Z,4.07
2022-08-04T02:44:30.836Z,3.07
2022-08-04T02:47:00.883Z,3.43
2022-08-04T02:49:33.693Z,3.63
2022-08-04T02:52:01.809Z,3.67
2022-08-04T02:54:37.606Z,3.93
2022-08-04T02:57:09.719Z,3.60
2022-08-04T03:00:13.990Z,4.00
2022-08-04T03:02:59.209Z,3.63
2022-08-04T03:05:50.229Z,3.20
2022-08-04T03:08:58.322Z,4.00
2022-08-04T03:11:53.124Z,3.20
2022-08-04T03:14:59.480Z,3.13
2022-08-04T03:17:53.253Z,3.20
2022-08-04T03:20:45.255Z,3.50
2022-08-04T03:23:23.450Z,3.63
2022-08-04T03:26:14.538Z,2.70
2022-08-04T03:29:05.434Z,3.47
2022-08-04T03:32:04.793Z,3.50
2022-08-04T03:34:34.261Z,3.37
2022-08-04T03:37:27.231Z,3.70
2022-08-04T03:40:29.788Z,3.70
2022-08-04T03:43:58.405Z,3.77
2022-08-04T03:46:38.515Z,3.70
2022-08-04T03:49:27.159Z,3.50
2022-08-04T03:52:24.423Z,3.50
2022-08-04T03:55:29.772Z,4.00
2022-08-04T03:58:30.626Z,3.93
2022-08-04T04:01:28.207Z,4.00
2022-08-04T04:04:15.094Z,4.03
2022-08-04T04:06:59.691Z,3.37
2022-08-04T04:10:07.663Z,4.00
2022-08-04T04:13:15.034Z,3.60
2022-08-04T04:15:53.912Z,3.27
2022-08-04T04:18:35.095Z,3.83
2022-08-04T04:21:38.233Z,4.17
2022-08-04T04:24:49.833Z,4.73
2022-08-04T04:27:34.294Z,4.00
2022-08-04T04:30:06.438Z,3.50
2022-08-04T04:32:45.123Z,4.30
2022-08-04T04:35:32.658Z,4.13
2022-08-04T04:38:28.527Z,4.60
2022-08-04T04:41:13.387Z,3.63
2022-08-04T04:43:52.765Z,3.80
2022-08-04T04:46:31.673Z,4.60
2022-08-04T04:49:04.612Z,4.70
2022-08-04T04:51:33.520Z,4.67
2022-08-04T04:54:19.170Z,4.40
2022-08-04T04:57:01.731Z,3.93
2022-08-04T04:59:34.737Z,4.43
2022-08-04T05:02:29.402Z,4.47
2022-08-04T05:05:14.864Z,4.53
2022-08-04T05:08:43.044Z,4.90
2022-08-04T05:11:32.627Z,4.40
2022-08-04T05:14:38.228Z,4.47
2022-08-04T05:17:20.798Z,4.90
2022-08-04T05:20:01.652Z,5.03
2022-08-04T05:22:56.775Z,4.53
2022-08-04T05:25:31.140Z,4.23
2022-08-04T05:28:03.570Z,5.10
2022-08-04T05:30:38.659Z,4.30
2022-08-04T05:33:11.137Z,4.30
2022-08-04T05:36:17.057Z,4.30
2022-08-04T05:38:38.329Z,5.10
2022-08-04T05:41:05.727Z,4.37
2022-08-04T05:43:33.237Z,4.80
2022-08-04T05:46:02.986Z,4.57
2022-08-04T05:48:35.454Z,4.90
2022-08-04T05:51:04.362Z,4.70
2022-08-04T05:53:32.689Z,5.37
2022-08-04T05:56:00.552Z,4.83
2022-08-04T05:58:30.842Z,4.30
2022-08-04T06:01:04.453Z,5.27
2022-08-04T06:03:32.550Z,5.77
2022-08-04T06:06:02.989Z,5.20
2022-08-04T06:08:30.912Z,4.90
2022-08-04T06:11:04.638Z,5.47
2022-08-04T06:13:48.019Z,5.67
2022-08-04T06:16:30.217Z,5.63
2022-08-04T06:19:59.847Z,4.87
2022-08-04T06:21:51.097Z,4.57
2022-08-04T06:24:25.136Z,4.30
2022-08-04T06:26:52.854Z,5.53
2022-08-04T06:29:34.860Z,5.00
2022-08-04T06:32:28.112Z,5.20
2022-08-04T06:35:02.162Z,5.37
2022-08-04T06:37:42.111Z,5.03
2022-08-04T06:40:31.901Z,5.50
2022-08-04T06:43:07.337Z,5.60
2022-08-04T06:45:37.092Z,15.60
2022-08-04T06:48:06.425Z,5.60
2022-08-04T06:51:27.121Z,5.60
2022-08-04T06:53:27.176Z,5.53
2022-08-04T06:55:57.577Z,4.67
2022-08-04T06:58:26.086Z,5.10
2022-08-04T07:00:55.754Z,4.60
2022-08-04T07:03:23.158Z,5.30
2022-08-04T07:05:51.354Z,5.07
2022-08-04T07:08:19.177Z,4.37
2022-08-04T07:10:46.653Z,7.90
2022-08-04T07:13:18.207Z,9.77
2022-08-04T07:15:46.709Z,3.97
2022-08-04T07:18:13.754Z,5.47
2022-08-04T07:20:45.588Z,6.50
2022-08-04T07:23:24.403Z,4.27
2022-08-04T07:26:11.417Z,4.00
2022-08-04T07:28:40.736Z,4.10
2022-08-04T07:31:33.111Z,3.50
2022-08-04T07:34:20.535Z,4.03
2022-08-04T07:36:55.396Z,4.10
2022-08-04T07:39:28.605Z,4.10
2022-08-04T07:41:57.709Z,4.53
2022-08-04T07:44:27.501Z,4.10
2022-08-04T07:46:56.687Z,4.00
2022-08-04T07:49:52.180Z,4.57
2022-08-04T07:52:14.391Z,4.07
2022-08-04T07:54:42.184Z,3.70
2022-08-04T07:57:09.225Z,3.77
2022-08-04T07:59:51.023Z,4.50
2022-08-04T08:02:22.311Z,3.50
2022-08-04T08:04:49.605Z,3.60
2022-08-04T08:07:18.896Z,3.90
2022-08-04T08:09:45.835Z,3.63
2022-08-04T08:12:38.719Z,3.60
2022-08-04T08:15:03.771Z,3.63
2022-08-04T08:17:57.717Z,3.80
2022-08-04T08:20:29.068Z,3.73
2022-08-04T08:22:59.622Z,3.73
2022-08-04T08:25:26.922Z,3.30
2022-08-04T08:27:56.834Z,3.40
2022-08-04T08:30:25.247Z,4.40
2022-08-04T08:33:01.382Z,3.90
2022-08-04T08:35:35.952Z,3.17
2022-08-04T08:38:17.030Z,3.60
2022-08-04T08:41:05.832Z,2.63
2022-08-04T08:44:04.443Z,3.00
2022-08-04T08:46:49.943Z,2.83
2022-08-04T08:50:01.786Z,2.90
2022-08-04T08:53:07.580Z,3.30
2022-08-04T08:55:53.113Z,2.70
2022-08-04T08:58:30.876Z,2.80
2022-08-04T09:01:23.797Z,2.50
2022-08-04T09:04:31.807Z,3.27
2022-08-04T09:07:04.813Z,17.50
2022-08-04T09:09:56.530Z,4.43
2022-08-04T09:12:48.105Z,3.30
2022-08-04T09:15:55.392Z,3.30
2022-08-04T09:18:25.277Z,3.60
2022-08-04T09:21:12.807Z,2.93
2022-08-04T09:24:36.106Z,2.50
2022-08-04T09:27:08.380Z,2.80
2022-08-04T09:29:59.724Z,3.40
2022-08-04T09:32:49.593Z,3.20
2022-08-04T09:35:44.275Z,3.00
2022-08-04T09:38:36.169Z,3.17
2022-08-04T09:41:20.969Z,3.10
2022-08-04T09:44:51.364Z,2.93
2022-08-04T09:47:23.602Z,2.93
2022-08-04T09:49:54.964Z,2.80
2022-08-04T09:52:42.999Z,2.70
2022-08-04T09:55:31.418Z,2.53
2022-08-04T09:58:04.355Z,2.57
2022-08-04T10:00:41.627Z,2.60
2022-08-04T10:03:17.445Z,3.20
2022-08-04T10:05:58.597Z,2.53
2022-08-04T10:08:57.925Z,2.30
2022-08-04T10:11:55.707Z,2.40
2022-08-04T10:14:51.490Z,2.20
2022-08-04T10:17:52.053Z,2.40
2022-08-04T10:20:45.775Z,2.27
2022-08-04T10:23:56.320Z,2.43
2022-08-04T10:26:41.478Z,2.50
2022-08-04T10:29:16.531Z,2.13
2022-08-04T10:31:48.381Z,1.90
2022-08-04T10:34:26.383Z,2.03
2022-08-04T10:37:06.342Z,2.30
2022-08-04T10:40:06.989Z,2.10
2022-08-04T10:42:43.101Z,2.10
2022-08-04T10:45:25.264Z,2.20
2022-08-04T10:48:05.975Z,1.87
2022-08-04T10:50:42.711Z,1.77
2022-08-04T10:53:20.528Z,1.80
2022-08-04T10:56:06.399Z,1.70
2022-08-04T10:58:49.890Z,2.30
2022-08-04T11:01:50.631Z,3.67
2022-08-04T11:04:48.834Z,2.00
2022-08-04T11:07:18.033Z,2.47
2022-08-04T11:09:46.110Z,2.00
2022-08-04T11:12:26.301Z,2.40
2022-08-04T11:15:07.323Z,1.87
2022-08-04T11:18:02.120Z,1.63
2022-08-04T11:20:50.856Z,1.60
2022-08-04T11:23:23.978Z,1.67
2022-08-04T11:26:13.860Z,1.73
2022-08-04T11:29:03.227Z,2.00
2022-08-04T11:31:40.439Z,2.07
2022-08-04T11:34:23.729Z,2.13
2022-08-04T11:37:02.481Z,2.00
2022-08-04T11:39:33.924Z,2.17
2022-08-04T11:42:07.074Z,1.73
2022-08-04T11:45:06.984Z,1.63
2022-08-04T11:48:01.217Z,1.93
2022-08-04T11:50:45.160Z,1.80
2022-08-04T11:53:19.480Z,1.60
2022-08-04T11:56:07.588Z,1.80
2022-08-04T11:58:37.171Z,1.90
2022-08-04T12:01:12.603Z,2.00
2022-08-04T12:04:03.700Z,2.23
2022-08-04T12:07:21.815Z,1.77
2022-08-04T12:10:15.864Z,1.70
2022-08-04T12:13:28.122Z,1.43
2022-08-04T12:16:22.766Z,1.43
2022-08-04T12:18:58.938Z,1.80
2022-08-04T12:21:34.929Z,1.70
2022-08-04T12:24:05.898Z,1.60
2022-08-04T12:26:41.170Z,1.60
2022-08-04T12:29:11.189Z,1.70
2022-08-04T12:31:55.847Z,1.57
2022-08-04T12:34:43.247Z,1.90
2022-08-04T12:37:26.890Z,1.83
2022-08-04T12:40:28.430Z,2.67
2022-08-04T12:43:00.268Z,2.10
2022-08-04T12:45:30.631Z,1.58
2022-08-04T12:47:59.740Z,1.20
2022-08-04T12:50:32.365Z,1.55
2022-08-04T12:53:03.337Z,1.33
2022-08-04T12:55:37.247Z,1.60
2022-08-04T12:58:16.084Z,1.33
2022-08-04T13:02:08.645Z,1.40
2022-08-04T13:04:16.819Z,1.00
2022-08-04T13:06:54.124Z,1.20
2022-08-04T13:09:26.406Z,1.00
2022-08-04T13:11:58.272Z,1.05
2022-08-04T13:14:33.451Z,1.00
2022-08-04T13:17:01.316Z,0.90
2022-08-04T13:19:30.798Z,1.17
2022-08-04T13:22:02.645Z,1.30
2022-08-04T13:24:37.596Z,0.82
2022-08-04T13:27:23.443Z,1.30
2022-08-04T13:30:00.268Z,1.00
2022-08-04T13:32:31.601Z,1.10
2022-08-04T13:35:01.797Z,0.88
2022-08-04T13:37:35.231Z,1.00
2022-08-04T13:40:09.265Z,0.95
2022-08-04T13:42:37.408Z,1.05
2022-08-04T13:45:07.382Z,0.80
2022-08-04T13:47:38.308Z,1.20
2022-08-04T13:50:27.523Z,1.23
2022-08-04T13:52:56.873Z,0.90
2022-08-04T13:55:36.271Z,1.00
2022-08-04T13:58:10.683Z,1.00
2022-08-04T14:00:56.036Z,1.00
2022-08-04T14:03:32.495Z,0.98
2022-08-04T14:06:20.309Z,1.00
2022-08-04T14:09:01.530Z,0.95
2022-08-04T14:12:07.017Z,1.27
2022-08-04T14:14:30.544Z,0.80
2022-08-04T14:17:06.435Z,1.00
2022-08-04T14:19:46.522Z,1.10
2022-08-04T14:22:26.807Z,1.15
2022-08-04T14:25:15.358Z,1.00
2022-08-04T14:27:49.482Z,1.00
2022-08-04T14:30:29.705Z,1.00
2022-08-04T14:34:01.960Z,0.90
2022-08-04T14:36:04.024Z,0.85
2022-08-04T14:38:56.470Z,1.13
2022-08-04T14:41:45.241Z,0.90
2022-08-04T14:44:14.459Z,1.30
2022-08-04T14:46:54.499Z,0.80
2022-08-04T14:49:22.436Z,0.82
2022-08-04T14:52:03.106Z,0.98
2022-08-04T14:54:34.640Z,0.73
2022-08-04T14:57:06.712Z,0.70
2022-08-04T15:00:00.657Z,0.95
2022-08-04T15:02:29.825Z,0.80
2022-08-04T15:04:57.455Z,1.00
2022-08-04T15:07:24.735Z,0.90
2022-08-04T15:09:51.702Z,1.17
2022-08-04T15:12:20.815Z,1.10
2022-08-04T15:14:48.029Z,1.00
2022-08-04T15:17:29.362Z,1.13
2022-08-04T15:19:57.331Z,1.33
2022-08-04T15:22:24.380Z,1.15
2022-08-04T15:24:55.667Z,1.05
2022-08-04T15:27:27.680Z,1.50
2022-08-04T15:30:02.068Z,1.30
2022-08-04T15:32:43.448Z,1.17
2022-08-04T15:35:26.542Z,1.23
2022-08-04T15:38:02.454Z,1.80
2022-08-04T15:40:49.562Z,1.50
2022-08-04T15:43:26.521Z,1.58
2022-08-04T15:46:33.142Z,1.07
2022-08-04T15:48:45.184Z,1.40
2022-08-04T15:51:14.771Z,1.53
2022-08-04T15:54:01.373Z,1.60
2022-08-04T15:56:29.728Z,1.57
2022-08-04T15:58:59.951Z,1.40
2022-08-04T16:01:27.736Z,1.80
2022-08-04T16:03:59.550Z,1.45
2022-08-04T16:06:28.902Z,2.03
2022-08-04T16:09:01.111Z,1.63
2022-08-04T16:11:32.698Z,1.70
2022-08-04T16:14:00.094Z,1.35
2022-08-04T16:16:33.497Z,1.33
2022-08-04T16:19:35.121Z,1.23
2022-08-04T16:22:06.015Z,1.80
2022-08-04T16:24:38.555Z,1.93
2022-08-04T16:27:07.574Z,1.77
2022-08-04T16:29:40.251Z,1.50
2022-08-04T16:32:07.079Z,1.40
2022-08-04T16:34:48.301Z,1.55
2022-08-04T16:37:20.725Z,1.35
2022-08-04T16:39:50.038Z,1.20
2022-08-04T16:42:32.680Z,1.47
2022-08-04T16:45:08.778Z,1.27
2022-08-04T16:47:47.405Z,1.50
2022-08-04T16:50:18.072Z,1.60
2022-08-04T16:52:48.091Z,1.37
2022-08-04T16:55:19.553Z,1.90
2022-08-04T16:57:49.892Z,1.77
2022-08-04T17:00:17.741Z,1.43
2022-08-04T17:02:46.994Z,1.47
2022-08-04T17:05:38.507Z,1.77
2022-08-04T17:10:56.782Z,1.37
2022-08-04T17:14:02.151Z,2.10
2022-08-04T17:16:18.806Z,1.53
2022-08-04T17:18:52.685Z,1.43
2022-08-04T17:21:30.845Z,1.80
2022-08-04T17:24:15.276Z,1.50
2022-08-04T17:26:53.864Z,2.03
2022-08-04T17:32:17.273Z,1.57
2022-08-04T17:34:52.944Z,1.60
2022-08-04T17:37:41.052Z,1.57
2022-08-04T17:40:11.087Z,1.40
2022-08-04T17:42:40.003Z,1.60
2022-08-04T17:47:59.084Z,1.57
2022-08-04T17:50:33.369Z,2.33
2022-08-04T17:53:11.746Z,1.63
2022-08-04T17:55:49.533Z,2.27
2022-08-04T17:58:23.345Z,1.93
2022-08-04T18:03:52.961Z,1.80
2022-08-04T18:06:21.910Z,2.50
2022-08-04T18:08:54.879Z,6.40
2022-08-04T18:11:29.579Z,1.77
2022-08-04T18:14:09.289Z,2.00
2022-08-04T18:16:49.140Z,1.90
2022-08-04T18:19:21.418Z,2.57
2022-08-04T18:21:59.550Z,1.80
2022-08-04T18:24:56.425Z,2.83
2022-08-04T18:27:26.516Z,2.43
2022-08-04T18:30:32.635Z,2.83
2022-08-04T18:33:24.549Z,8.23
2022-08-04T18:36:35.532Z,4.23
2022-08-04T18:38:24.363Z,2.57
2022-08-04T18:40:53.389Z,2.70
2022-08-04T18:43:28.174Z,2.50
2022-08-04T18:48:52.225Z,7.03
2022-08-04T18:51:22.999Z,2.60
2022-08-04T18:53:58.416Z,3.00
2022-08-04T18:56:33.009Z,2.40
2022-08-04T18:59:10.327Z,2.63
2022-08-04T19:02:12.278Z,3.30
2022-08-04T19:04:33.953Z,2.93
2022-08-04T19:07:28.859Z,2.97
2022-08-04T19:09:57.362Z,2.53
2022-08-04T19:12:27.123Z,2.73
2022-08-04T19:14:57.856Z,2.23
2022-08-04T19:17:53.674Z,2.53
2022-08-04T19:24:27.516Z,2.33
2022-08-04T19:26:04.747Z,2.70
2022-08-04T19:28:36.064Z,4.40
2022-08-04T19:31:05.853Z,3.10
2022-08-04T19:33:59.354Z,2.60
2022-08-04T19:36:27.750Z,4.10
2022-08-04T19:38:59.961Z,3.37
2022-08-04T19:41:29.505Z,4.17
2022-08-04T19:43:58.110Z,2.83
2022-08-04T19:46:27.886Z,2.83
2022-08-04T19:48:59.437Z,3.00
2022-08-04T19:51:32.571Z,3.00
2022-08-04T19:54:02.886Z,3.30
2022-08-04T19:56:40.656Z,5.33
2022-08-04T19:59:11.579Z,4.70
2022-08-04T20:01:45.295Z,3.37
2022-08-04T20:04:13.778Z,3.30
2022-08-04T20:06:40.767Z,3.50
2022-08-04T20:09:24.575Z,3.90
2022-08-04T20:11:54.216Z,2.87
2022-08-04T20:14:32.781Z,3.47
2022-08-04T20:17:02.166Z,3.47
2022-08-04T20:22:50.772Z,3.40
2022-08-04T20:27:59.751Z,3.30
2022-08-04T20:30:30.228Z,2.80
2022-08-04T20:33:01.271Z,2.90
2022-08-04T20:35:32.487Z,2.60
2022-08-04T20:38:33.271Z,2.20
2022-08-04T20:41:03.595Z,2.67
2022-08-04T20:43:33.544Z,2.80
2022-08-04T20:46:01.665Z,3.03
2022-08-04T20:48:44.790Z,3.10
2022-08-04T20:51:17.688Z,3.13
2022-08-04T20:53:52.756Z,4.80
2022-08-04T20:56:30.742Z,2.57
2022-08-04T20:58:59.785Z,2.43
2022-08-04T21:01:30.711Z,2.73
2022-08-04T21:04:27.832Z,2.30
2022-08-04T21:06:59.210Z,2.90
2022-08-04T21:09:37.462Z,2.77
2022-08-04T21:12:26.858Z,3.53
2022-08-04T21:14:54.201Z,2.73
2022-08-04T21:17:56.563Z,2.47
2022-08-04T21:20:12.896Z,2.70
2022-08-04T21:22:42.990Z,2.90
2022-08-04T21:25:16.470Z,2.97
2022-08-04T21:27:46.994Z,3.07
2022-08-04T21:30:26.041Z,2.80
2022-08-04T21:32:55.098Z,3.37
2022-08-04T21:35:26.718Z,2.60
2022-08-04T21:38:04.352Z,2.83
2022-08-04T21:41:01.724Z,2.80
2022-08-04T21:43:34.419Z,2.60
2022-08-04T21:46:10.201Z,2.80
2022-08-04T21:48:43.281Z,2.53
2022-08-04T21:51:56.726Z,2.53
2022-08-04T21:54:01.376Z,3.50
2022-08-04T21:56:29.193Z,2.50
2022-08-04T21:58:58.915Z,2.90
2022-08-04T22:01:52.350Z,2.53
2022-08-04T22:04:15.414Z,3.27
2022-08-04T22:06:42.309Z,3.53
2022-08-04T22:09:18.511Z,2.33
2022-08-04T22:11:51.059Z,3.47
2022-08-04T22:14:27.425Z,2.57
2022-08-04T22:17:04.933Z,3.50
2022-08-04T22:19:40.882Z,2.90
2022-08-04T22:22:25.974Z,3.00
2022-08-04T22:24:54.735Z,3.43
2022-08-04T22:27:40.022Z,3.20
2022-08-04T22:30:17.300Z,4.00
2022-08-04T22:32:47.017Z,3.90
2022-08-04T22:35:35.922Z,3.10
2022-08-04T22:38:06.290Z,3.63
2022-08-04T22:40:38.322Z,3.50
2022-08-04T22:43:22.619Z,3.70
2022-08-04T22:45:52.225Z,5.73
2022-08-04T22:48:19.204Z,3.57
2022-08-04T22:50:48.155Z,3.13
2022-08-04T22:53:18.022Z,3.20
2022-08-04T22:56:07.741Z,3.40
2022-08-04T22:58:32.529Z,3.47
2022-08-04T23:00:59.783Z,3.40
2022-08-04T23:03:37.086Z,3.57
2022-08-04T23:06:11.061Z,2.97
2022-08-04T23:08:42.798Z,3.30
2022-08-04T23:11:12.898Z,3.20
2022-08-04T23:13:39.728Z,3.47
2022-08-04T23:16:10.977Z,2.93
2022-08-04T23:18:40.005Z,2.67
2022-08-04T23:21:09.863Z,3.30
2022-08-04T23:23:45.257Z,2.90
2022-08-04T23:26:27.280Z,3.00
2022-08-04T23:28:58.224Z,2.90
2022-08-04T23:31:40.582Z,3.50
2022-08-04T23:34:09.308Z,3.07
2022-08-04T23:36:42.431Z,2.67
2022-08-04T23:39:12.110Z,3.10
2022-08-04T23:41:54.419Z,3.37
2022-08-04T23:44:29.038Z,3.30
2022-08-04T23:47:03.574Z,2.67
2022-08-04T23:49:43.832Z,3.17
2022-08-04T23:52:23.160Z,3.30
2022-08-04T23:54:58.289Z,3.37
2022-08-04T23:58:05.242Z,2.97
